METAR Data
IDs: Format: Raw Decoded Include TAF

Data at: 0044 UTC 20 Jul 2019

METAR for:PADK (Adak (NAS), AK, US)
Text:PADK 192356Z AUTO 26010KT 10SM OVC022 13/07 A3049 RMK AO2 SLP326 T01280072 10128 20089 58005
Temperature: 12.8°C ( 55°F)
Dewpoint: 7.2°C ( 45°F) [RH = 69%]
Pressure (altimeter):30.49 inches Hg (1032.6 mb) [Sea level pressure: 1032.6 mb]
Winds:from the W (260 degrees) at 12 MPH (10 knots; 5.1 m/s)
Visibility:10 or more sm (16+ km)
Ceiling:2200 feet AGL
Clouds: overcast cloud deck at 2200 feet AGL
QC Flag:automated observation with no human augmentation
Text:PADK 192256Z AUTO 27010KT 10SM OVC022 12/07 A3050 RMK AO2 SLP328 T01220072
Temperature: 12.2°C ( 54°F)
Dewpoint: 7.2°C ( 45°F) [RH = 71%]
Pressure (altimeter):30.50 inches Hg (1032.9 mb) [Sea level pressure: 1032.8 mb]
Winds:from the W (270 degrees) at 12 MPH (10 knots; 5.1 m/s)
Visibility:10 or more sm (16+ km)
Ceiling:2200 feet AGL
Clouds: overcast cloud deck at 2200 feet AGL
QC Flag:automated observation with no human augmentation
Text:PADK 192156Z AUTO 27011KT 10SM OVC020 12/07 A3050 RMK AO2 SLP329 T01170067
Temperature: 11.7°C ( 53°F)
Dewpoint: 6.7°C ( 44°F) [RH = 71%]
Pressure (altimeter):30.50 inches Hg (1032.9 mb) [Sea level pressure: 1032.9 mb]
Winds:from the W (270 degrees) at 13 MPH (11 knots; 5.7 m/s)
Visibility:10 or more sm (16+ km)
Ceiling:2000 feet AGL
Clouds: overcast cloud deck at 2000 feet AGL
QC Flag:automated observation with no human augmentation
Text:PADK 192056Z AUTO 24008KT 10SM OVC018 11/06 A3051 RMK AO2 SLP331 T01060061 50002
Temperature: 10.6°C ( 51°F)
Dewpoint: 6.1°C ( 43°F) [RH = 74%]
Pressure (altimeter):30.51 inches Hg (1033.3 mb) [Sea level pressure: 1033.1 mb]
Winds:from the WSW (240 degrees) at 9 MPH (8 knots; 4.1 m/s)
Visibility:10 or more sm (16+ km)
Ceiling:1800 feet AGL
Clouds: overcast cloud deck at 1800 feet AGL
QC Flag:automated observation with no human augmentation
Text:PADK 191956Z AUTO 26008KT 10SM OVC018 10/07 A3052 RMK AO2 SLP334 T01000067
Temperature: 10.0°C ( 50°F)
Dewpoint: 6.7°C ( 44°F) [RH = 80%]
Pressure (altimeter):30.52 inches Hg (1033.6 mb) [Sea level pressure: 1033.4 mb]
Winds:from the W (260 degrees) at 9 MPH (8 knots; 4.1 m/s)
Visibility:10 or more sm (16+ km)
Ceiling:1800 feet AGL
Clouds: overcast cloud deck at 1800 feet AGL
QC Flag:automated observation with no human augmentation
Text:PADK 191856Z AUTO 21006KT 10SM OVC018 09/06 A3051 RMK AO2 SLP331 T00940061
Temperature: 9.4°C ( 49°F)
Dewpoint: 6.1°C ( 43°F) [RH = 80%]
Pressure (altimeter):30.51 inches Hg (1033.3 mb) [Sea level pressure: 1033.1 mb]
Winds:from the SSW (210 degrees) at 7 MPH (6 knots; 3.1 m/s)
Visibility:10 or more sm (16+ km)
Ceiling:1800 feet AGL
Clouds: overcast cloud deck at 1800 feet AGL
QC Flag:automated observation with no human augmentation

TAF for:PADK (Adak (NAS), AK, US)
Text:No data found